createdAt,value
2018-03-31T00:01:17.473Z,99.90
2018-03-31T00:03:44.533Z,99.90
2018-03-31T00:06:11.587Z,99.90
2018-03-31T00:08:38.660Z,99.90
2018-03-31T00:11:05.721Z,99.90
2018-03-31T00:13:33.569Z,99.90
2018-03-31T00:16:00.650Z,99.90
2018-03-31T00:18:27.749Z,99.90
2018-03-31T00:20:54.832Z,99.90
2018-03-31T00:23:22.664Z,99.90
2018-03-31T00:25:49.747Z,99.90
2018-03-31T00:28:17.575Z,99.90
2018-03-31T00:30:44.653Z,99.90
2018-03-31T00:33:12.490Z,99.90
2018-03-31T00:35:39.580Z,99.90
2018-03-31T00:38:07.401Z,99.90
2018-03-31T00:40:34.469Z,99.90
2018-03-31T00:43:01.561Z,99.90
2018-03-31T00:45:28.617Z,99.90
2018-03-31T00:47:55.681Z,99.90
2018-03-31T00:50:22.783Z,99.90
2018-03-31T00:52:49.860Z,99.90
2018-03-31T00:55:16.916Z,99.90
2018-03-31T00:57:44.009Z,99.90
2018-03-31T01:00:11.085Z,99.90
2018-03-31T01:02:38.156Z,99.90
2018-03-31T01:05:05.358Z,99.90
2018-03-31T01:07:32.444Z,99.90
2018-03-31T01:09:59.532Z,99.90
2018-03-31T01:12:26.590Z,99.90
2018-03-31T01:14:53.681Z,99.90
2018-03-31T01:17:20.732Z,99.90
2018-03-31T01:19:47.790Z,99.90
2018-03-31T01:22:14.868Z,99.90
2018-03-31T01:24:45.700Z,99.90
2018-03-31T01:27:12.759Z,99.90
2018-03-31T01:29:39.848Z,99.90
2018-03-31T01:32:06.958Z,99.90
2018-03-31T01:34:34.041Z,99.90
2018-03-31T01:37:01.896Z,99.90
2018-03-31T01:39:28.948Z,99.90
2018-03-31T01:41:56.779Z,99.90
2018-03-31T01:44:24.648Z,99.90
2018-03-31T01:46:51.723Z,99.90
2018-03-31T01:49:18.783Z,99.90
2018-03-31T01:51:46.603Z,99.90
2018-03-31T01:54:13.665Z,99.90
2018-03-31T01:56:40.709Z,99.90
2018-03-31T01:59:07.811Z,99.90
2018-03-31T02:01:34.851Z,99.90
2018-03-31T02:04:01.905Z,99.90
2018-03-31T02:06:29.011Z,99.90
2018-03-31T02:08:56.061Z,99.90
2018-03-31T02:11:23.139Z,99.90
2018-03-31T02:13:50.962Z,99.90
2018-03-31T02:16:18.066Z,99.90
2018-03-31T02:18:46.050Z,99.90
2018-03-31T02:21:13.139Z,99.90
2018-03-31T02:23:40.198Z,99.90
2018-03-31T02:26:07.249Z,99.90
2018-03-31T02:28:34.328Z,99.90
2018-03-31T02:31:01.395Z,99.90
2018-03-31T02:33:28.464Z,99.90
2018-03-31T02:35:55.569Z,99.90
2018-03-31T02:38:22.668Z,99.90
2018-03-31T02:40:49.731Z,99.90
2018-03-31T02:43:16.796Z,99.90
2018-03-31T02:45:44.653Z,99.90
2018-03-31T02:48:12.498Z,99.90
2018-03-31T02:50:39.555Z,99.90
2018-03-31T02:53:06.607Z,99.90
2018-03-31T02:55:33.709Z,99.90
2018-03-31T02:58:00.763Z,99.90
2018-03-31T03:00:38.487Z,99.90
2018-03-31T03:03:05.553Z,99.90
2018-03-31T03:05:32.641Z,99.90
2018-03-31T03:07:59.685Z,99.90
2018-03-31T03:10:26.756Z,99.90
2018-03-31T03:12:53.837Z,99.90
2018-03-31T03:15:20.894Z,99.90
2018-03-31T03:17:47.976Z,99.90
2018-03-31T03:20:15.046Z,99.90
2018-03-31T03:22:42.119Z,99.90
2018-03-31T03:25:09.170Z,99.90
2018-03-31T03:27:36.274Z,99.90
2018-03-31T03:30:03.337Z,99.90
2018-03-31T03:32:30.390Z,99.90
2018-03-31T03:34:59.392Z,99.90
2018-03-31T03:37:26.438Z,99.90
2018-03-31T03:39:53.505Z,99.90
2018-03-31T03:42:20.580Z,99.90
2018-03-31T03:44:47.662Z,99.90
2018-03-31T03:47:14.740Z,99.90
2018-03-31T03:49:41.822Z,99.90
2018-03-31T03:52:09.661Z,99.90
2018-03-31T03:54:36.869Z,99.90
2018-03-31T03:57:03.930Z,99.90
2018-03-31T03:59:31.759Z,99.90
2018-03-31T04:01:58.853Z,99.90
2018-03-31T04:04:25.895Z,99.90
2018-03-31T04:06:52.935Z,99.90
2018-03-31T04:09:20.005Z,99.90
2018-03-31T04:11:47.074Z,99.90
2018-03-31T04:14:14.161Z,99.90
2018-03-31T04:16:41.225Z,99.90
2018-03-31T04:19:08.393Z,99.90
2018-03-31T04:21:36.282Z,99.90
2018-03-31T04:24:03.333Z,99.90
2018-03-31T04:26:30.418Z,99.90
2018-03-31T04:28:57.471Z,99.90
2018-03-31T04:31:24.551Z,99.90
2018-03-31T04:33:51.617Z,99.90
2018-03-31T04:36:18.800Z,99.90
2018-03-31T04:38:46.684Z,99.90
2018-03-31T04:41:14.512Z,99.90
2018-03-31T04:43:41.595Z,99.90
2018-03-31T04:46:08.673Z,99.90
2018-03-31T04:48:39.402Z,99.90
2018-03-31T04:51:06.476Z,99.90
2018-03-31T04:53:33.574Z,99.90
2018-03-31T04:56:00.669Z,99.90
2018-03-31T04:58:27.748Z,99.90
2018-03-31T05:00:55.601Z,99.90
2018-03-31T05:03:22.678Z,99.90
2018-03-31T05:05:49.747Z,99.90
2018-03-31T05:08:16.800Z,99.90
2018-03-31T05:10:43.895Z,99.90
2018-03-31T05:13:10.989Z,99.90
2018-03-31T05:15:38.075Z,99.90
2018-03-31T05:18:05.122Z,99.90
2018-03-31T05:20:32.176Z,99.90
2018-03-31T05:22:59.266Z,99.90
2018-03-31T05:25:26.340Z,99.90
2018-03-31T05:27:53.398Z,99.90
2018-03-31T05:30:20.489Z,99.90
2018-03-31T05:32:47.565Z,99.90
2018-03-31T05:35:15.593Z,99.90
2018-03-31T05:37:42.648Z,99.90
2018-03-31T05:40:09.727Z,99.90
2018-03-31T05:42:36.798Z,99.90
2018-03-31T05:45:03.869Z,99.90
2018-03-31T05:47:31.929Z,99.90
2018-03-31T05:49:59.010Z,99.90
2018-03-31T05:52:26.415Z,99.90
2018-03-31T05:54:53.489Z,99.90
2018-03-31T05:57:20.534Z,99.90
2018-03-31T05:59:47.605Z,99.90
2018-03-31T06:02:14.730Z,99.90
2018-03-31T06:04:41.811Z,99.90
2018-03-31T06:07:08.868Z,99.90
2018-03-31T06:09:36.701Z,99.90
2018-03-31T06:12:03.817Z,99.90
2018-03-31T06:14:31.896Z,99.90
2018-03-31T06:16:59.017Z,99.90
2018-03-31T06:19:26.094Z,99.90
2018-03-31T06:21:53.154Z,99.90
2018-03-31T06:24:20.249Z,99.90
2018-03-31T06:26:48.067Z,99.90
2018-03-31T06:29:15.151Z,99.90
2018-03-31T06:31:42.256Z,99.90
2018-03-31T06:34:09.319Z,99.90
2018-03-31T06:36:36.380Z,99.90
2018-03-31T06:39:03.454Z,99.90
2018-03-31T06:41:31.278Z,99.90
2018-03-31T06:43:58.361Z,99.90
2018-03-31T06:46:27.392Z,99.90
2018-03-31T06:48:54.467Z,99.90
2018-03-31T06:51:21.524Z,99.90
2018-03-31T06:53:48.609Z,99.90
2018-03-31T06:56:17.492Z,99.90
2018-03-31T06:58:45.337Z,99.90
2018-03-31T07:01:13.426Z,99.90
2018-03-31T07:03:41.418Z,99.90
2018-03-31T07:06:08.559Z,99.90
2018-03-31T07:08:35.816Z,99.80
2018-03-31T07:11:02.957Z,99.70
2018-03-31T07:13:30.775Z,99.50
2018-03-31T07:15:57.886Z,99.50
2018-03-31T07:18:25.711Z,99.40
2018-03-31T07:20:52.808Z,99.40
2018-03-31T07:23:19.873Z,99.10
2018-03-31T07:25:46.919Z,99.10
2018-03-31T07:28:14.006Z,99.50
2018-03-31T07:30:41.068Z,99.50
2018-03-31T07:33:08.177Z,98.90
2018-03-31T07:35:35.243Z,98.50
2018-03-31T07:38:02.306Z,98.20
2018-03-31T07:40:29.374Z,97.20
2018-03-31T07:42:57.223Z,96.10
2018-03-31T07:45:24.310Z,96.10
2018-03-31T07:47:51.391Z,96.10
2018-03-31T07:50:18.465Z,96.40
2018-03-31T07:52:45.530Z,97.10
2018-03-31T07:55:12.632Z,96.30
2018-03-31T07:57:40.449Z,96.40
2018-03-31T08:00:08.517Z,96.40
2018-03-31T08:02:35.604Z,96.40
2018-03-31T08:05:03.667Z,96.80
2018-03-31T08:07:30.740Z,96.00
2018-03-31T08:09:57.839Z,95.80
2018-03-31T08:12:24.897Z,95.70
2018-03-31T08:14:51.950Z,95.80
2018-03-31T08:17:19.113Z,95.80
2018-03-31T08:19:46.913Z,94.70
2018-03-31T08:22:19.601Z,94.70
2018-03-31T08:24:46.661Z,95.60
2018-03-31T08:27:13.708Z,95.50
2018-03-31T08:29:40.789Z,96.10
2018-03-31T08:32:07.862Z,95.30
2018-03-31T08:34:34.940Z,95.20
2018-03-31T08:37:01.997Z,94.70
2018-03-31T08:39:29.232Z,94.10
2018-03-31T08:41:56.356Z,94.20
2018-03-31T08:44:23.436Z,94.00
2018-03-31T08:46:50.563Z,94.60
2018-03-31T08:49:36.453Z,94.50
2018-03-31T08:52:03.528Z,94.30
2018-03-31T08:54:30.940Z,93.90
2018-03-31T08:57:08.467Z,93.90
2018-03-31T08:59:35.534Z,93.20
2018-03-31T09:02:03.922Z,93.30
2018-03-31T09:04:32.841Z,93.40
2018-03-31T09:07:00.920Z,93.40
2018-03-31T09:09:28.339Z,93.50
2018-03-31T09:11:55.482Z,93.30
2018-03-31T09:14:22.576Z,93.30
2018-03-31T09:16:49.647Z,93.40
2018-03-31T09:19:16.732Z,92.60
2018-03-31T09:21:45.004Z,92.60
2018-03-31T09:24:12.084Z,92.60
2018-03-31T09:26:39.136Z,91.80
2018-03-31T09:29:09.796Z,91.70
2018-03-31T09:31:36.882Z,92.40
2018-03-31T09:34:03.928Z,92.20
2018-03-31T09:36:31.017Z,91.30
2018-03-31T09:38:58.064Z,90.80
2018-03-31T09:41:25.150Z,91.80
2018-03-31T09:43:52.199Z,92.70
2018-03-31T09:46:19.289Z,92.20
2018-03-31T09:48:47.386Z,92.20
2018-03-31T09:51:25.430Z,92.20
2018-03-31T09:53:52.523Z,92.00
2018-03-31T09:56:19.675Z,90.70
2018-03-31T09:58:48.732Z,90.50
2018-03-31T10:01:15.811Z,90.60
2018-03-31T10:03:43.213Z,90.20
2018-03-31T10:06:10.327Z,89.80
2018-03-31T10:08:37.438Z,88.70
2018-03-31T10:11:04.536Z,86.50
2018-03-31T10:13:31.593Z,87.20
2018-03-31T10:15:58.667Z,80.90
2018-03-31T10:18:25.745Z,78.90
2018-03-31T10:20:53.589Z,79.30
2018-03-31T10:23:20.649Z,79.30
2018-03-31T10:25:47.797Z,78.80
2018-03-31T10:28:14.857Z,78.10
2018-03-31T10:30:42.689Z,76.80
2018-03-31T10:33:09.772Z,76.80
2018-03-31T10:35:37.618Z,70.60
2018-03-31T10:38:04.689Z,70.60
2018-03-31T10:40:32.534Z,69.90
2018-03-31T10:43:01.601Z,69.80
2018-03-31T10:45:28.665Z,66.10
2018-03-31T10:48:00.108Z,66.40
2018-03-31T10:50:27.161Z,68.80
2018-03-31T10:53:06.285Z,69.90
2018-03-31T10:55:33.361Z,70.50
2018-03-31T10:58:00.453Z,69.40
2018-03-31T11:00:27.501Z,72.20
2018-03-31T11:02:56.496Z,71.30
2018-03-31T11:05:23.586Z,67.00
2018-03-31T11:07:51.620Z,67.80
2018-03-31T11:10:36.730Z,70.00
2018-03-31T11:13:03.778Z,69.20
2018-03-31T11:15:30.868Z,67.00
2018-03-31T11:17:57.950Z,68.40
2018-03-31T11:23:39.167Z,64.40
2018-03-31T11:26:06.246Z,63.20
2018-03-31T11:28:33.310Z,63.60
2018-03-31T11:31:00.404Z,63.30
2018-03-31T11:33:27.501Z,63.50
2018-03-31T11:35:54.556Z,63.50
2018-03-31T11:38:21.635Z,60.90
2018-03-31T11:40:51.952Z,62.30
2018-03-31T11:43:19.011Z,61.70
2018-03-31T11:45:46.080Z,58.60
2018-03-31T11:48:13.179Z,58.90
2018-03-31T11:50:40.235Z,60.60
2018-03-31T11:53:07.288Z,57.60
2018-03-31T11:55:36.306Z,58.20
2018-03-31T11:58:08.250Z,56.80
2018-03-31T12:00:36.346Z,57.20
2018-03-31T12:03:03.433Z,56.50
2018-03-31T12:05:31.263Z,54.30
2018-03-31T12:07:58.347Z,54.40
2018-03-31T12:10:26.173Z,55.50
2018-03-31T12:12:53.266Z,55.50
2018-03-31T12:15:20.356Z,56.00
2018-03-31T12:17:47.413Z,55.90
2018-03-31T12:20:15.226Z,55.60
2018-03-31T12:22:43.065Z,52.60
2018-03-31T12:25:10.146Z,52.50
2018-03-31T12:27:40.190Z,52.90
2018-03-31T12:30:07.273Z,52.80
2018-03-31T12:32:34.333Z,50.20
2018-03-31T12:35:01.421Z,48.70
2018-03-31T12:37:28.485Z,48.20
2018-03-31T12:39:55.552Z,49.30
2018-03-31T12:42:22.636Z,47.90
2018-03-31T12:44:50.501Z,48.20
2018-03-31T12:47:18.557Z,48.10
2018-03-31T12:49:45.622Z,45.90
2018-03-31T12:52:13.509Z,46.00
2018-03-31T12:54:41.321Z,45.50
2018-03-31T12:57:08.408Z,45.40
2018-03-31T12:59:36.230Z,47.30
2018-03-31T13:02:03.341Z,47.30
2018-03-31T13:04:30.494Z,47.00
2018-03-31T13:06:58.289Z,47.10
2018-03-31T13:09:26.377Z,47.00
2018-03-31T13:11:53.433Z,45.10
2018-03-31T13:14:20.508Z,46.40
2018-03-31T13:16:47.585Z,46.00
2018-03-31T13:19:14.668Z,45.40
2018-03-31T13:21:41.731Z,44.30
2018-03-31T13:24:09.750Z,44.50
2018-03-31T13:26:36.887Z,43.50
2018-03-31T13:29:04.698Z,45.30
2018-03-31T13:31:31.814Z,45.30
2018-03-31T13:34:00.839Z,46.60
2018-03-31T13:36:29.610Z,47.90
2018-03-31T13:38:56.684Z,48.00
2018-03-31T13:41:23.787Z,46.40
2018-03-31T13:43:50.852Z,46.80
2018-03-31T13:46:17.952Z,46.00
2018-03-31T13:48:45.788Z,43.10
2018-03-31T13:51:13.838Z,43.10
2018-03-31T13:53:40.917Z,43.30
2018-03-31T13:56:08.030Z,44.80
2018-03-31T13:58:35.088Z,45.30
2018-03-31T14:01:02.170Z,46.10
2018-03-31T14:03:29.253Z,45.80
2018-03-31T14:05:56.318Z,44.90
2018-03-31T14:08:23.381Z,45.40
2018-03-31T14:10:50.461Z,46.50
2018-03-31T14:13:18.488Z,46.90
2018-03-31T14:15:45.576Z,45.60
2018-03-31T14:18:12.662Z,43.80
2018-03-31T14:20:39.751Z,44.00
2018-03-31T14:23:06.821Z,44.60
2018-03-31T14:25:34.642Z,44.10
2018-03-31T14:28:01.712Z,44.10
2018-03-31T14:30:28.766Z,44.80
2018-03-31T14:32:55.849Z,43.30
2018-03-31T14:35:24.734Z,41.10
2018-03-31T14:37:52.564Z,41.60
2018-03-31T14:40:19.649Z,41.60
2018-03-31T14:42:47.477Z,42.90
2018-03-31T14:45:14.568Z,42.90
2018-03-31T14:47:43.406Z,42.50
2018-03-31T14:50:10.521Z,42.50
2018-03-31T14:52:37.579Z,42.60
2018-03-31T14:55:04.628Z,41.70
2018-03-31T14:57:31.703Z,41.80
2018-03-31T14:59:58.780Z,41.00
2018-03-31T15:02:29.532Z,39.60
2018-03-31T15:04:58.578Z,41.20
2018-03-31T15:07:25.654Z,40.20
2018-03-31T15:09:53.680Z,40.30
2018-03-31T15:12:20.764Z,41.20
2018-03-31T15:14:48.817Z,41.80
2018-03-31T15:17:15.859Z,41.80
2018-03-31T15:19:46.501Z,42.50
2018-03-31T15:22:13.555Z,42.30
2018-03-31T15:24:40.614Z,42.50
2018-03-31T15:27:11.116Z,41.50
2018-03-31T15:29:38.217Z,41.00
2018-03-31T15:32:06.058Z,41.40
2018-03-31T15:34:33.943Z,41.40
2018-03-31T15:37:01.043Z,41.70
2018-03-31T15:39:28.096Z,41.70
2018-03-31T15:41:55.157Z,41.90
2018-03-31T15:44:23.238Z,41.10
2018-03-31T15:46:51.292Z,41.00
2018-03-31T15:49:18.371Z,42.10
2018-03-31T15:51:45.470Z,41.30
2018-03-31T15:54:12.520Z,41.40
2018-03-31T15:56:39.597Z,41.40
2018-03-31T15:59:06.669Z,41.00
2018-03-31T16:01:33.772Z,40.40
2018-03-31T16:04:00.827Z,39.80
2018-03-31T16:06:27.881Z,38.90
2018-03-31T16:08:54.982Z,40.20
2018-03-31T16:11:22.060Z,40.90
2018-03-31T16:13:51.081Z,40.60
2018-03-31T16:16:18.134Z,40.90
2018-03-31T16:18:45.216Z,41.20
2018-03-31T16:21:13.058Z,42.50
2018-03-31T16:23:40.120Z,42.50
2018-03-31T16:26:07.981Z,42.30
2018-03-31T16:28:35.799Z,42.50
2018-03-31T16:31:02.855Z,41.90
2018-03-31T16:33:29.928Z,41.90
2018-03-31T16:35:57.017Z,42.40
2018-03-31T16:38:24.068Z,42.10
2018-03-31T16:40:51.161Z,41.70
2018-03-31T16:43:18.246Z,41.80
2018-03-31T16:45:46.085Z,41.90
2018-03-31T16:48:13.942Z,42.10
2018-03-31T16:50:41.017Z,42.00
2018-03-31T16:53:08.869Z,43.10
2018-03-31T16:55:35.939Z,43.00
2018-03-31T16:58:03.791Z,42.50
2018-03-31T17:00:30.855Z,42.50
2018-03-31T17:02:58.673Z,42.30
2018-03-31T17:05:25.753Z,42.30
2018-03-31T17:07:52.852Z,42.80
2018-03-31T17:10:19.918Z,42.60
2018-03-31T17:12:46.974Z,42.50
2018-03-31T17:15:14.363Z,43.30
2018-03-31T17:17:42.242Z,43.00
2018-03-31T17:20:10.066Z,43.50
2018-03-31T17:22:38.114Z,43.50
2018-03-31T17:25:05.254Z,43.40
2018-03-31T17:27:32.309Z,44.00
2018-03-31T17:29:59.401Z,44.00
2018-03-31T17:32:27.237Z,42.70
2018-03-31T17:34:55.211Z,43.20
2018-03-31T17:37:22.294Z,43.20
2018-03-31T17:39:50.123Z,44.20
2018-03-31T17:42:17.200Z,44.20
2018-03-31T17:44:44.273Z,44.60
2018-03-31T17:47:11.367Z,45.60
2018-03-31T17:49:38.446Z,46.90
2018-03-31T17:52:05.506Z,48.20
2018-03-31T17:54:33.378Z,50.30
2018-03-31T17:57:01.223Z,52.30
2018-03-31T17:59:28.310Z,52.30
2018-03-31T18:01:55.376Z,53.70
2018-03-31T18:04:22.440Z,54.30
2018-03-31T18:06:49.857Z,54.80
2018-03-31T18:09:16.914Z,55.70
2018-03-31T18:11:44.001Z,56.50
2018-03-31T18:14:11.127Z,57.30
2018-03-31T18:16:38.171Z,58.90
2018-03-31T18:19:05.242Z,59.50
2018-03-31T18:21:32.294Z,60.60
2018-03-31T18:23:59.362Z,62.40
2018-03-31T18:26:26.457Z,63.40
2018-03-31T18:28:53.499Z,63.90
2018-03-31T18:31:20.571Z,64.60
2018-03-31T18:33:47.624Z,65.00
2018-03-31T18:36:14.692Z,66.20
2018-03-31T18:38:41.744Z,68.10
2018-03-31T18:41:08.812Z,70.50
2018-03-31T18:43:35.911Z,72.80
2018-03-31T18:46:03.001Z,74.20
2018-03-31T18:48:30.882Z,77.70
2018-03-31T18:50:58.702Z,78.40
2018-03-31T18:53:25.757Z,78.40
2018-03-31T18:55:52.847Z,77.70
2018-03-31T18:58:20.714Z,80.40
2018-03-31T19:00:48.527Z,81.10
2018-03-31T19:03:15.597Z,81.10
2018-03-31T19:05:42.689Z,82.30
2018-03-31T19:08:09.755Z,83.80
2018-03-31T19:10:36.836Z,84.10
2018-03-31T19:13:03.881Z,84.10
2018-03-31T19:15:30.972Z,84.70
2018-03-31T19:17:58.077Z,85.60
2018-03-31T19:20:25.214Z,86.90
2018-03-31T19:22:52.319Z,87.50
2018-03-31T19:25:24.959Z,89.50
2018-03-31T19:27:52.053Z,89.90
2018-03-31T19:30:19.127Z,90.30
2018-03-31T19:32:46.250Z,90.90
2018-03-31T19:35:13.317Z,91.40
2018-03-31T19:37:40.383Z,91.30
2018-03-31T19:40:07.486Z,91.50
2018-03-31T19:42:35.325Z,91.40
2018-03-31T19:45:02.416Z,91.40
2018-03-31T19:47:29.501Z,91.60
2018-03-31T19:49:56.563Z,92.20
2018-03-31T19:52:23.609Z,91.90
2018-03-31T19:54:50.699Z,92.50
2018-03-31T19:57:17.760Z,92.90
2018-03-31T19:59:44.817Z,93.40
2018-03-31T20:02:11.902Z,93.80
2018-03-31T20:04:38.960Z,94.00
2018-03-31T20:07:06.058Z,94.40
2018-03-31T20:09:33.113Z,94.50
2018-03-31T20:12:00.203Z,94.40
2018-03-31T20:14:27.265Z,95.10
2018-03-31T20:16:55.108Z,95.20
2018-03-31T20:19:22.195Z,95.20
2018-03-31T20:21:49.295Z,95.60
2018-03-31T20:24:16.367Z,95.40
2018-03-31T20:26:44.232Z,95.60
2018-03-31T20:29:11.297Z,95.60
2018-03-31T20:31:38.346Z,95.60
2018-03-31T20:34:06.184Z,96.30
2018-03-31T20:36:33.251Z,96.30
2018-03-31T20:39:01.101Z,96.00
2018-03-31T20:41:28.164Z,96.00
2018-03-31T20:43:55.987Z,96.20
2018-03-31T20:46:23.040Z,96.20
2018-03-31T20:48:50.111Z,96.80
2018-03-31T20:51:17.159Z,96.60
2018-03-31T20:53:44.241Z,96.70
2018-03-31T20:56:11.297Z,96.70
2018-03-31T20:58:38.381Z,96.70
2018-03-31T21:01:06.231Z,96.90
2018-03-31T21:03:33.299Z,96.90
2018-03-31T21:06:00.381Z,96.80
2018-03-31T21:08:28.193Z,96.80
2018-03-31T21:10:55.285Z,96.80
2018-03-31T21:13:22.340Z,96.50
2018-03-31T21:15:50.212Z,97.50
2018-03-31T21:18:18.037Z,97.20
2018-03-31T21:20:45.102Z,97.20
2018-03-31T21:23:12.185Z,96.70
2018-03-31T21:25:39.257Z,96.60
2018-03-31T21:28:06.337Z,97.10
2018-03-31T21:30:33.382Z,97.00
2018-03-31T21:33:00.459Z,96.70
2018-03-31T21:35:28.269Z,95.60
2018-03-31T21:37:55.330Z,95.60
2018-03-31T21:40:22.419Z,95.70
2018-03-31T21:42:50.255Z,96.50
2018-03-31T21:45:17.337Z,96.50
2018-03-31T21:47:45.167Z,95.50
2018-03-31T21:50:12.235Z,95.50
2018-03-31T21:52:39.323Z,96.40
2018-03-31T21:55:06.388Z,96.60
2018-03-31T21:57:33.458Z,97.00
2018-03-31T22:00:00.558Z,96.60
2018-03-31T22:02:27.638Z,96.60
2018-03-31T22:04:54.693Z,96.40
2018-03-31T22:07:21.771Z,96.60
2018-03-31T22:09:48.810Z,96.50
2018-03-31T22:12:15.863Z,96.60
2018-03-31T22:14:48.647Z,96.20
2018-03-31T22:17:15.690Z,96.70
2018-03-31T22:19:42.730Z,96.80
2018-03-31T22:22:09.818Z,97.30
2018-03-31T22:24:37.633Z,97.70
2018-03-31T22:27:04.713Z,97.70
2018-03-31T22:29:32.536Z,97.10
2018-03-31T22:31:59.613Z,97.10
2018-03-31T22:34:26.677Z,97.20
2018-03-31T22:36:54.400Z,97.20
2018-03-31T22:39:21.457Z,97.30
2018-03-31T22:41:48.529Z,96.90
2018-03-31T22:44:15.605Z,96.50
2018-03-31T22:46:42.667Z,96.30
2018-03-31T22:49:09.757Z,97.10
2018-03-31T22:51:36.808Z,97.10
2018-03-31T22:54:03.898Z,97.20
2018-03-31T22:56:30.953Z,97.30
2018-03-31T22:58:58.026Z,97.40
2018-03-31T23:01:25.081Z,97.40
2018-03-31T23:03:52.181Z,97.00
2018-03-31T23:06:20.020Z,97.20
2018-03-31T23:08:47.077Z,97.20
2018-03-31T23:11:14.139Z,96.50
2018-03-31T23:13:41.975Z,97.00
2018-03-31T23:16:09.081Z,97.00
2018-03-31T23:18:36.161Z,97.40
2018-03-31T23:21:03.213Z,97.40
2018-03-31T23:23:30.318Z,97.20
2018-03-31T23:25:57.378Z,97.40
2018-03-31T23:28:24.474Z,97.50
2018-03-31T23:30:51.528Z,97.60
2018-03-31T23:33:18.586Z,98.30
2018-03-31T23:35:46.459Z,98.40
2018-03-31T23:38:14.275Z,98.10
2018-03-31T23:40:41.330Z,98.00
2018-03-31T23:43:08.414Z,98.60
2018-03-31T23:45:36.232Z,98.80
2018-03-31T23:48:03.294Z,98.50
2018-03-31T23:50:31.151Z,98.50
2018-03-31T23:52:58.343Z,98.50
2018-03-31T23:55:26.197Z,99.30
2018-03-31T23:57:53.247Z,99.30
